Time;durP1;ratioP1;P1;durP2;ratioP2;P2;SDS_P1;SDS_P2;PMS_P1;PMS_P2;Temp;Humidity;BMP_temperature;BMP_pressure;BME280_temperature;BME280_humidity;BME280_pressure;Samples;Min_cycle;Max_cycle;Signal;HPM_P1;HPM_P2
2023/01/05 00:00:17;;;;;;;;;0.50;0.00;;;;;14.74;74.03;101679.94;6280925;22;45991;-78
2023/01/05 00:02:42;;;;;;;;;0.00;0.00;;;;;14.79;74.06;101679.66;6333362;22;45666;-77
2023/01/05 00:05:08;;;;;;;;;0.00;0.00;;;;;14.79;73.94;101677.81;6333117;22;45476;-77
2023/01/05 00:07:34;;;;;;;;;0.00;0.00;;;;;14.75;73.83;101688.69;6332237;22;47081;-78
2023/01/05 00:09:59;;;;;;;;;0.00;0.00;;;;;14.80;73.77;101679.50;6332208;22;45764;-78
2023/01/05 00:23:20;;;;;;;;;0.00;0.00;;;;;14.73;73.57;101670.38;6331747;22;45620;-79
2023/01/05 00:25:46;;;;;;;;;0.00;0.00;;;;;14.78;73.57;101681.44;6332906;22;45624;-77
2023/01/05 00:28:11;;;;;;;;;0.00;0.00;;;;;14.78;73.90;101677.94;6332604;22;46362;-81
2023/01/05 00:30:43;;;;;;;;;0.00;0.00;;;;;14.74;73.75;101672.03;6332544;22;45756;-80
2023/01/05 00:33:10;;;;;;;;;0.00;0.00;;;;;14.75;73.66;101675.50;6305079;22;45835;-75
2023/01/05 00:35:35;;;;;;;;;0.00;0.00;;;;;14.71;73.95;101672.25;6332164;22;45585;-79
2023/01/05 00:38:01;;;;;;;;;0.00;0.00;;;;;14.66;73.88;101672.59;6331109;22;46019;-80
2023/01/05 00:40:26;;;;;;;;;0.00;0.00;;;;;14.68;74.26;101677.78;6332682;22;45929;-80
2023/01/05 00:42:52;;;;;;;;;0.00;0.00;;;;;14.66;74.13;101669.13;6333732;22;45589;-79
2023/01/05 00:45:19;;;;;;;;;1.00;0.00;;;;;14.67;74.28;101678.72;6333005;22;45577;-76
2023/01/05 00:47:44;;;;;;;;;0.00;0.00;;;;;14.64;74.08;101682.41;6330947;22;46248;-78
2023/01/05 00:50:13;;;;;;;;;0.00;0.00;;;;;14.59;74.13;101675.75;6332793;22;45506;-74
2023/01/05 00:52:39;;;;;;;;;0.00;0.00;;;;;14.62;74.23;101684.31;6333387;22;45690;-76
2023/01/05 00:55:05;;;;;;;;;0.00;0.00;;;;;14.55;74.01;101682.22;6332448;22;45844;-78
2023/01/05 00:57:30;;;;;;;;;0.00;0.00;;;;;14.55;74.16;101675.16;6303151;22;47922;-75
2023/01/05 00:59:55;;;;;;;;;0.00;0.00;;;;;14.57;74.17;101696.16;6331874;22;45791;-77
2023/01/05 01:02:21;;;;;;;;;0.00;0.00;;;;;14.52;74.33;101677.16;6333519;22;45612;-73
2023/01/05 01:04:46;;;;;;;;;0.00;0.00;;;;;14.51;73.97;101686.88;6332897;22;46294;-77
2023/01/05 01:07:12;;;;;;;;;0.75;0.00;;;;;14.50;74.43;101690.44;6333313;22;45498;-77
2023/01/05 01:09:39;;;;;;;;;0.00;0.00;;;;;14.51;74.29;101683.38;6333602;22;45657;-75
2023/01/05 01:12:04;;;;;;;;;0.00;0.00;;;;;14.42;74.33;101690.13;6332895;22;45710;-78
2023/01/05 01:14:30;;;;;;;;;0.25;0.00;;;;;14.46;74.26;101693.41;6332760;22;45631;-76
2023/01/05 01:16:55;;;;;;;;;0.00;0.00;;;;;14.46;74.36;101681.09;6333578;22;46887;-75
2023/01/05 01:19:23;;;;;;;;;0.00;0.00;;;;;14.48;74.26;101681.78;6333895;22;45958;-78
2023/01/05 01:21:49;;;;;;;;;0.00;0.00;;;;;14.48;74.40;101680.94;6333973;22;45704;-79
2023/01/05 01:24:20;;;;;;;;;0.00;0.00;;;;;14.49;74.13;101669.47;6332703;22;46384;-80
2023/01/05 01:26:46;;;;;;;;;0.00;0.00;;;;;14.45;74.29;101674.13;6333914;22;45931;-77
2023/01/05 01:29:12;;;;;;;;;1.00;0.00;;;;;14.41;73.92;101674.44;6332783;22;45514;-76
2023/01/05 01:31:37;;;;;;;;;0.00;0.00;;;;;14.41;73.93;101671.81;6334193;22;45579;-77
2023/01/05 01:34:04;;;;;;;;;0.00;0.00;;;;;14.33;73.71;101664.38;6332663;22;47349;-78
2023/01/05 01:36:29;;;;;;;;;0.00;0.00;;;;;14.42;73.90;101676.94;6333665;22;46903;-73
2023/01/05 01:42:16;;;;;;;;;0.00;0.00;;;;;14.40;72.87;101665.69;6327592;22;45794;-73
2023/01/05 01:44:50;;;;;;;;;0.25;0.00;;;;;14.43;73.09;101675.16;6333346;22;46279;-76
2023/01/05 01:47:28;;;;;;;;;0.00;0.00;;;;;14.33;72.82;101664.38;6334020;22;45968;-78
2023/01/05 01:49:56;;;;;;;;;0.00;0.00;;;;;14.42;72.86;101678.75;6333042;22;45580;-77
2023/01/05 01:52:26;;;;;;;;;0.00;0.00;;;;;14.42;72.45;101678.75;6333481;22;45450;-80
2023/01/05 01:54:52;;;;;;;;;0.00;0.00;;;;;14.43;72.77;101690.97;6334075;22;45509;-81
2023/01/05 01:57:17;;;;;;;;;0.50;0.00;;;;;14.43;72.91;101690.97;6333355;22;46178;-78
2023/01/05 01:59:43;;;;;;;;;0.00;0.00;;;;;14.45;72.58;101697.00;6333189;22;45715;-79
2023/01/05 02:02:11;;;;;;;;;0.00;0.00;;;;;14.44;72.76;101695.31;6333691;22;45671;-81
2023/01/05 02:04:37;;;;;;;;;0.00;0.00;;;;;14.43;73.12;101701.53;6333046;22;47769;-73
2023/01/05 02:07:06;;;;;;;;;1.00;0.00;;;;;14.38;72.98;101678.13;6333316;22;46028;-77
2023/01/05 02:09:32;;;;;;;;;0.75;0.00;;;;;14.44;73.08;101690.88;6305189;22;45847;-75
2023/01/05 02:12:17;;;;;;;;;0.00;0.00;;;;;14.41;73.30;101688.47;6334034;22;45530;-80
2023/01/05 02:15:06;;;;;;;;;0.00;0.00;;;;;14.45;73.28;101695.22;6333658;22;46495;-75
2023/01/05 02:18:08;;;;;;;;;0.00;0.00;;;;;14.47;73.11;101700.34;6333628;22;45741;-78
2023/01/05 02:20:53;;;;;;;;;0.00;0.00;;;;;14.41;73.22;101685.84;6333040;22;45696;-75
2023/01/05 02:23:30;;;;;;;;;0.00;0.00;;;;;14.47;73.91;101692.44;6333941;22;45478;-78
2023/01/05 02:26:30;;;;;;;;;0.00;0.00;;;;;14.44;73.92;101703.22;6333613;22;45521;-77
2023/01/05 02:29:16;;;;;;;;;0.25;0.00;;;;;14.44;73.92;101692.66;6305090;22;47207;-77
2023/01/05 02:31:56;;;;;;;;;0.00;0.00;;;;;14.43;73.52;101697.09;6333188;22;45579;-78
2023/01/05 02:34:48;;;;;;;;;0.00;0.00;;;;;14.43;73.55;101698.88;6334651;22;45487;-79
2023/01/05 02:40:41;;;;;;;;;0.00;0.00;;;;;14.41;73.02;101706.94;6333580;22;45712;-74
2023/01/05 02:43:09;;;;;;;;;0.00;0.00;;;;;14.37;72.68;101715.13;6332049;22;45486;-78
2023/01/05 02:45:34;;;;;;;;;1.75;0.00;;;;;14.26;72.55;101703.50;6333745;22;45425;-79
2023/01/05 02:48:00;;;;;;;;;0.00;0.00;;;;;14.29;72.44;101721.75;6332346;22;46487;-80
2023/01/05 02:50:38;;;;;;;;;0.00;0.00;;;;;14.24;72.29;101715.13;6333733;22;46016;-77
2023/01/05 02:56:33;;;;;;;;;0.50;0.00;;;;;14.17;71.65;101705.94;6333406;22;45648;-76
2023/01/05 02:59:13;;;;;;;;;0.00;0.00;;;;;14.16;71.69;101705.09;6333506;22;46098;-81
2023/01/05 03:01:58;;;;;;;;;0.00;0.00;;;;;14.13;71.29;101700.03;6334194;22;47485;-76
2023/01/05 03:04:32;;;;;;;;;2.00;0.00;;;;;14.08;71.09;101691.59;6336734;22;45874;-76
2023/01/05 03:07:05;;;;;;;;;0.25;0.00;;;;;14.05;71.14;101689.16;6337205;22;45644;-78
2023/01/05 03:15:44;;;;;;;;;0.25;0.00;;;;;14.04;70.86;101708.56;6334672;22;45416;-79
2023/01/05 03:18:13;;;;;;;;;0.25;0.00;;;;;14.02;70.23;101705.19;6334387;22;45800;-79
2023/01/05 03:20:42;;;;;;;;;1.00;0.00;;;;;13.96;70.60;101694.22;6334623;22;45494;-79
2023/01/05 03:37:38;;;;;;;;;0.00;0.00;;;;;13.99;70.39;101694.84;6335132;22;45520;-79
2023/01/05 03:40:11;;;;;;;;;0.00;0.00;;;;;14.02;70.90;101702.56;6334855;22;45854;-79
2023/01/05 03:42:37;;;;;;;;;0.00;0.00;;;;;14.03;70.60;101706.88;6333757;22;45743;-80
2023/01/05 03:45:04;;;;;;;;;1.00;0.00;;;;;14.06;70.74;101711.09;6334893;22;45493;-79
2023/01/05 03:47:30;;;;;;;;;0.75;0.50;;;;;14.07;70.64;101713.63;6334953;22;45541;-79
2023/01/05 03:49:55;;;;;;;;;0.00;0.00;;;;;14.08;70.73;101717.13;6334942;22;45600;-73
2023/01/05 03:52:21;;;;;;;;;0.00;0.00;;;;;14.07;70.54;101718.06;6306278;22;47365;-80
2023/01/05 03:54:46;;;;;;;;;1.00;0.00;;;;;14.06;70.61;101719.84;6334035;22;46198;-77
2023/01/05 03:57:11;;;;;;;;;1.00;0.00;;;;;14.08;70.68;101712.69;6334866;22;45388;-80
2023/01/05 03:59:37;;;;;;;;;1.00;0.00;;;;;14.08;70.60;101717.97;6334657;22;45375;-78
2023/01/05 04:02:03;;;;;;;;;0.25;0.00;;;;;14.08;71.01;101725.88;6334408;22;45480;-80
2023/01/05 04:04:28;;;;;;;;;0.00;0.00;;;;;14.07;71.14;101723.31;6334414;22;45767;-80
2023/01/05 04:06:54;;;;;;;;;0.75;0.00;;;;;14.06;71.28;101730.38;6305825;22;45534;-78
2023/01/05 04:09:19;;;;;;;;;1.25;0.00;;;;;14.05;71.01;101725.22;6333561;22;45679;-81
2023/01/05 04:11:44;;;;;;;;;2.00;0.00;;;;;14.05;71.01;101725.22;6333958;22;50638;-80
2023/01/05 04:14:10;;;;;;;;;1.00;0.00;;;;;14.05;71.07;101723.41;6333979;22;46987;-77
2023/01/05 04:16:35;;;;;;;;;0.00;0.00;;;;;14.09;71.39;101724.88;6334126;22;45683;-78
2023/01/05 04:19:00;;;;;;;;;1.00;0.75;;;;;14.07;71.24;101739.13;6334701;22;45625;-80
2023/01/05 04:21:26;;;;;;;;;0.00;0.00;;;;;14.10;70.95;101729.22;6333836;22;46590;-79
2023/01/05 04:23:51;;;;;;;;;0.75;0.00;;;;;14.06;71.32;101713.72;6334614;22;46297;-78
2023/01/05 04:26:16;;;;;;;;;0.00;0.00;;;;;14.08;71.18;101722.38;6333619;22;45568;-79
2023/01/05 04:28:42;;;;;;;;;1.25;0.00;;;;;14.08;71.19;101715.31;6334372;22;45516;-79
2023/01/05 04:31:07;;;;;;;;;2.25;0.50;;;;;14.05;71.52;101717.31;6334631;22;45541;-79
2023/01/05 04:33:32;;;;;;;;;0.00;0.00;;;;;14.01;71.57;101706.13;6307259;22;45558;-81
2023/01/05 04:35:59;;;;;;;;;2.00;0.00;;;;;14.04;71.44;101729.63;6335053;22;45548;-79
2023/01/05 04:38:24;;;;;;;;;0.00;0.00;;;;;14.03;71.24;101725.34;6334693;22;45596;-77
2023/01/05 04:44:11;;;;;;;;;0.00;0.00;;;;;14.05;71.67;101722.56;6332866;22;45710;-80
2023/01/05 04:46:37;;;;;;;;;0.25;0.00;;;;;14.04;71.83;101716.47;6336239;22;45530;-79
2023/01/05 04:49:02;;;;;;;;;0.00;0.00;;;;;14.05;71.59;101725.22;6306976;22;45914;-79
2023/01/05 04:51:27;;;;;;;;;0.00;0.00;;;;;14.03;71.55;101727.97;6338552;22;45640;-81
2023/01/05 04:53:53;;;;;;;;;0.50;0.00;;;;;14.00;71.81;101720.25;6335963;22;45825;-79
2023/01/05 04:59:40;;;;;;;;;0.00;0.00;;;;;13.94;71.89;101714.56;6334184;22;45596;-80
2023/01/05 05:02:05;;;;;;;;;0.00;0.00;;;;;13.89;71.98;101704.31;6333658;22;46314;-79
2023/01/05 05:04:31;;;;;;;;;0.00;0.00;;;;;13.90;72.22;101711.28;6334264;22;45980;-79
2023/01/05 05:06:56;;;;;;;;;0.25;0.00;;;;;13.90;72.17;101713.06;6334651;22;45820;-79
2023/01/05 05:09:21;;;;;;;;;0.00;0.00;;;;;13.85;72.28;101706.34;6333171;22;45822;-77
2023/01/05 05:11:47;;;;;;;;;0.50;0.00;;;;;13.83;72.50;101702.09;6333952;22;45545;-80
2023/01/05 05:14:12;;;;;;;;;0.00;0.00;;;;;13.87;72.25;101708.88;6334099;22;45694;-74
2023/01/05 05:16:37;;;;;;;;;0.00;0.00;;;;;13.85;72.47;101708.13;6334431;22;45618;-77
2023/01/05 05:19:03;;;;;;;;;0.00;0.00;;;;;13.87;72.99;101706.25;6305803;22;45985;-80
2023/01/05 05:21:28;;;;;;;;;0.00;0.00;;;;;13.86;72.53;101702.75;6334178;22;46763;-79
2023/01/05 05:23:53;;;;;;;;;0.00;0.00;;;;;13.93;72.81;101702.34;6333329;22;45610;-81
2023/01/05 05:29:40;;;;;;;;;0.00;0.00;;;;;13.93;72.77;101707.63;6334156;22;45557;-79
2023/01/05 05:32:06;;;;;;;;;0.00;0.00;;;;;13.91;72.56;101706.88;6305828;22;47455;-76
2023/01/05 05:34:32;;;;;;;;;0.25;0.00;;;;;13.89;72.95;101714.88;6334279;22;46699;-78
2023/01/05 05:36:57;;;;;;;;;0.50;0.25;;;;;13.88;72.94;101714.00;6334316;22;45655;-79
2023/01/05 05:39:22;;;;;;;;;0.00;0.00;;;;;13.87;73.10;101707.06;6333588;22;45877;-80
2023/01/05 05:45:10;;;;;;;;;0.25;0.00;;;;;13.87;73.10;101709.69;6328254;22;45725;-77
2023/01/05 05:47:35;;;;;;;;;0.00;0.00;;;;;13.90;72.71;101710.44;6333892;22;45607;-79
2023/01/05 05:50:00;;;;;;;;;0.00;0.00;;;;;13.91;72.62;101718.25;6334114;22;45472;-72
2023/01/05 05:52:26;;;;;;;;;0.00;0.00;;;;;13.90;73.03;101719.19;6333976;22;45607;-75
2023/01/05 05:54:51;;;;;;;;;0.00;0.00;;;;;13.95;72.79;101724.16;6332952;22;45923;-77
2023/01/05 05:57:16;;;;;;;;;0.00;0.00;;;;;13.93;73.01;101712.88;6333955;22;45613;-80
2023/01/05 05:59:42;;;;;;;;;0.00;0.00;;;;;13.93;72.80;101708.44;6334066;22;45712;-81
2023/01/05 06:02:08;;;;;;;;;0.00;0.00;;;;;13.98;72.87;101723.97;6305155;22;48386;-80
2023/01/05 06:04:33;;;;;;;;;1.00;0.00;;;;;13.99;72.67;101731.75;6333065;22;47322;-79
2023/01/05 06:06:58;;;;;;;;;1.00;0.00;;;;;13.95;72.75;101732.91;6334038;22;45667;-80
2023/01/05 06:09:24;;;;;;;;;0.00;0.00;;;;;13.95;72.39;101725.00;6333705;22;45631;-78
2023/01/05 06:15:11;;;;;;;;;0.00;0.00;;;;;13.96;73.04;101755.66;6333506;22;45882;-82
2023/01/05 06:17:36;;;;;;;;;0.75;0.00;;;;;13.97;72.85;101740.72;6332776;22;45937;-80
2023/01/05 06:20:02;;;;;;;;;1.00;0.00;;;;;13.97;73.15;101748.63;6305309;22;45857;-78
2023/01/05 06:22:27;;;;;;;;;0.00;0.00;;;;;13.99;73.01;101750.19;6305703;22;45522;-81
2023/01/05 06:24:53;;;;;;;;;0.00;0.00;;;;;13.97;72.69;101743.34;6333724;22;45857;-76
2023/01/05 06:27:19;;;;;;;;;0.25;0.00;;;;;14.00;73.21;101746.59;6304752;22;45655;-81
2023/01/05 06:29:44;;;;;;;;;0.00;0.00;;;;;13.99;72.86;101754.59;6334414;22;45510;-80
2023/01/05 06:32:09;;;;;;;;;0.00;0.00;;;;;13.95;72.74;101755.75;6334539;22;45658;-80
2023/01/05 06:34:35;;;;;;;;;0.50;0.00;;;;;13.99;73.27;101758.09;6334457;22;45525;-80
2023/01/05 06:37:00;;;;;;;;;1.00;0.00;;;;;14.00;72.97;101759.78;6335463;22;45395;-82
2023/01/05 06:39:25;;;;;;;;;0.00;0.00;;;;;14.01;73.11;101760.63;6308705;22;45962;-80
2023/01/05 06:41:51;;;;;;;;;0.00;0.00;;;;;13.98;72.82;101761.66;6335872;22;45597;-79
2023/01/05 06:44:16;;;;;;;;;0.00;0.00;;;;;13.98;72.92;101760.84;6334667;22;45626;-81
2023/01/05 06:46:41;;;;;;;;;0.00;0.00;;;;;13.96;73.30;101762.72;6335354;22;45465;-82
2023/01/05 06:49:11;;;;;;;;;0.00;0.00;;;;;13.96;73.39;101773.25;6335273;22;45644;-80
2023/01/05 06:51:36;;;;;;;;;0.00;0.00;;;;;13.91;73.66;101770.09;6335336;22;45485;-78
2023/01/05 06:54:01;;;;;;;;;0.00;0.00;;;;;13.92;73.65;101767.38;6334418;22;46886;-79
2023/01/05 06:56:27;;;;;;;;;0.25;0.00;;;;;13.95;73.34;101767.16;6335303;22;45560;-78
2023/01/05 06:58:52;;;;;;;;;0.00;0.00;;;;;13.96;73.79;101768.00;6335073;22;45513;-75
2023/01/05 07:01:18;;;;;;;;;0.00;0.00;;;;;13.90;73.45;101761.34;6333380;22;46395;-76
2023/01/05 07:03:43;;;;;;;;;0.00;0.00;;;;;13.98;73.54;101779.28;6333095;22;46251;-76
2023/01/05 07:06:13;;;;;;;;;0.00;0.00;;;;;13.99;73.48;101767.78;6335054;22;45536;-75
2023/01/05 07:08:38;;;;;;;;;0.50;0.00;;;;;13.99;73.63;101768.63;6334160;22;45448;-74
2023/01/05 07:11:04;;;;;;;;;0.00;0.00;;;;;14.02;73.96;101776.34;6334496;22;46727;-76
2023/01/05 07:13:29;;;;;;;;;1.00;0.25;;;;;14.04;73.90;101765.69;6334787;22;45565;-75
2023/01/05 07:15:55;;;;;;;;;0.00;0.00;;;;;14.04;74.07;101768.31;6333865;22;45719;-75
2023/01/05 07:18:20;;;;;;;;;0.00;0.00;;;;;14.04;73.83;101769.16;6334598;22;45613;-75
2023/01/05 07:20:45;;;;;;;;;1.00;0.00;;;;;14.08;73.46;101785.63;6333964;22;46416;-75
2023/01/05 07:23:10;;;;;;;;;0.00;0.00;;;;;14.08;73.77;101769.81;6334843;22;45599;-75
2023/01/05 07:25:36;;;;;;;;;0.50;0.00;;;;;14.07;73.81;101773.41;6306188;22;45550;-74
2023/01/05 07:31:23;;;;;;;;;0.25;0.25;;;;;14.13;74.03;101775.63;6334251;22;45483;-74
2023/01/05 07:33:48;;;;;;;;;0.75;0.00;;;;;14.16;73.86;101775.41;6334281;22;45625;-74
2023/01/05 07:36:14;;;;;;;;;0.00;0.00;;;;;14.19;74.05;101780.47;6333784;22;45520;-75
2023/01/05 07:38:39;;;;;;;;;0.00;0.00;;;;;14.21;74.07;101779.41;6333874;22;45680;-73
2023/01/05 07:41:05;;;;;;;;;0.00;0.00;;;;;14.17;73.95;101767.41;6333526;22;47228;-73
2023/01/05 07:43:31;;;;;;;;;0.00;0.00;;;;;14.22;73.65;101777.63;6332244;22;46658;-76
2023/01/05 07:46:00;;;;;;;;;1.00;0.75;;;;;14.24;73.79;101776.59;6332930;22;45510;-74
2023/01/05 07:48:25;;;;;;;;;0.00;0.00;;;;;14.24;73.81;101776.59;6333544;22;45906;-75
2023/01/05 07:50:51;;;;;;;;;1.00;1.00;;;;;14.30;73.81;101784.06;6333806;22;47056;-74
2023/01/05 07:53:17;;;;;;;;;1.00;0.00;;;;;14.34;73.76;101791.78;6333621;22;47104;-74
2023/01/05 07:55:42;;;;;;;;;0.25;0.00;;;;;14.35;73.71;101786.41;6333609;22;45427;-75
2023/01/05 08:01:29;;;;;;;;;0.25;0.25;;;;;14.36;74.00;101790.72;6333858;22;45744;-74
2023/01/05 08:03:55;;;;;;;;;1.00;1.00;;;;;14.38;73.70;101782.72;6334640;22;46077;-75
2023/01/05 08:06:20;;;;;;;;;1.00;0.00;;;;;14.39;73.76;101776.53;6333923;22;45525;-75
2023/01/05 08:08:46;;;;;;;;;0.75;0.75;;;;;14.38;73.79;101783.59;6334663;22;45605;-75
2023/01/05 08:11:15;;;;;;;;;1.00;1.00;;;;;14.38;73.51;101782.72;6333685;22;47176;-74
2023/01/05 08:17:01;;;;;;;;;1.75;1.00;;;;;14.43;73.98;101789.38;6334310;22;45396;-74
2023/01/05 08:19:27;;;;;;;;;2.25;2.25;;;;;14.37;73.26;101775.78;6334545;22;45396;-74
2023/01/05 08:21:52;;;;;;;;;1.75;1.75;;;;;14.53;73.50;101785.16;6334377;22;46314;-74
2023/01/05 08:24:17;;;;;;;;;0.75;0.75;;;;;14.59;73.46;101781.25;6334449;22;46231;-74
2023/01/05 08:26:43;;;;;;;;;2.25;1.00;;;;;14.63;73.23;101788.00;6335248;22;45387;-75
2023/01/05 08:29:08;;;;;;;;;1.00;1.00;;;;;14.67;73.48;101790.34;6334072;22;45786;-73
2023/01/05 08:31:36;;;;;;;;;0.00;0.00;;;;;14.72;72.93;101791.81;6334114;22;46277;-73
2023/01/05 08:34:02;;;;;;;;;1.00;1.00;;;;;14.76;72.90;101790.66;6334722;22;46297;-75
2023/01/05 08:36:30;;;;;;;;;0.75;0.75;;;;;14.75;73.09;101786.31;6334996;22;45603;-75
2023/01/05 08:38:55;;;;;;;;;0.00;0.00;;;;;14.78;73.05;101791.41;6334766;22;45589;-75
2023/01/05 08:41:27;;;;;;;;;0.25;0.25;;;;;14.80;73.06;101792.13;6334674;22;45443;-76
2023/01/05 08:47:27;;;;;;;;;0.00;0.00;;;;;14.70;72.87;101781.38;6329096;22;45674;-73
2023/01/05 08:49:53;;;;;;;;;0.00;0.00;;;;;14.84;72.71;101796.25;6334809;22;45466;-75
2023/01/05 08:52:18;;;;;;;;;0.00;0.00;;;;;14.81;72.69;101796.44;6334395;22;45674;-74
2023/01/05 08:54:43;;;;;;;;;0.25;0.25;;;;;14.84;72.56;101794.47;6333516;22;47190;-74
2023/01/05 08:57:09;;;;;;;;;0.00;0.00;;;;;14.81;72.23;101796.44;6333236;22;45576;-78
2023/01/05 08:59:34;;;;;;;;;0.00;0.00;;;;;14.76;72.28;101796.78;6333885;22;45539;-74
2023/01/05 09:01:59;;;;;;;;;0.00;0.00;;;;;14.78;72.36;101794.03;6334232;22;46331;-76
2023/01/05 09:04:26;;;;;;;;;0.75;0.75;;;;;14.77;72.36;101797.63;6333618;22;48298;-74
2023/01/05 09:06:52;;;;;;;;;1.00;0.00;;;;;14.77;72.35;101801.09;6305757;22;45705;-76
2023/01/05 09:09:17;;;;;;;;;0.00;0.00;;;;;14.76;72.55;101809.13;6333686;22;45772;-74
2023/01/05 09:11:42;;;;;;;;;0.00;0.00;;;;;14.75;72.48;101805.63;6333519;22;47377;-73
2023/01/05 09:17:29;;;;;;;;;0.50;0.00;;;;;14.76;72.71;101807.31;6333781;22;45574;-75
2023/01/05 09:19:55;;;;;;;;;1.00;1.00;;;;;14.72;72.42;101789.19;6334391;22;45795;-74
2023/01/05 09:22:21;;;;;;;;;0.00;0.00;;;;;14.75;72.36;101800.34;6333218;22;45539;-74
2023/01/05 09:24:46;;;;;;;;;1.00;0.00;;;;;14.75;72.44;101804.78;6334029;22;46205;-74
2023/01/05 09:27:11;;;;;;;;;0.00;0.00;;;;;14.72;72.68;101802.38;6333293;22;45535;-77
2023/01/05 09:29:37;;;;;;;;;0.00;0.00;;;;;14.73;72.58;101799.63;6333835;22;45684;-75
2023/01/05 09:32:02;;;;;;;;;0.00;0.00;;;;;14.73;72.76;101798.78;6333433;22;47527;-75
2023/01/05 09:34:28;;;;;;;;;0.00;0.00;;;;;14.77;72.83;101805.53;6333420;22;46448;-74
2023/01/05 09:36:53;;;;;;;;;0.00;0.00;;;;;14.79;72.46;101806.28;6305544;22;45502;-72
2023/01/05 09:39:18;;;;;;;;;0.50;0.50;;;;;14.79;72.35;101807.09;6333609;22;45452;-73
2023/01/05 09:41:55;;;;;;;;;0.00;0.00;;;;;14.75;72.62;101796.88;6333858;22;45526;-74
2023/01/05 09:47:45;;;;;;;;;0.00;0.00;;;;;14.83;72.66;101803.31;6330919;22;45680;-76
2023/01/05 09:50:20;;;;;;;;;0.00;0.00;;;;;14.89;72.50;101816.09;6333730;22;45813;-74
2023/01/05 09:52:47;;;;;;;;;0.00;0.00;;;;;14.87;72.31;101807.44;6305461;22;48564;-75
2023/01/05 09:55:18;;;;;;;;;0.00;0.00;;;;;14.89;72.70;101807.31;6333139;22;46925;-74
2023/01/05 09:57:55;;;;;;;;;0.50;0.25;;;;;14.92;72.51;101817.66;6305025;22;45600;-74
2023/01/05 10:00:23;;;;;;;;;1.00;0.00;;;;;14.93;72.63;101807.00;6333316;22;45772;-74
2023/01/05 10:02:50;;;;;;;;;0.00;0.00;;;;;14.95;72.52;101814.81;6333860;22;45620;-75
2023/01/05 10:05:16;;;;;;;;;0.00;0.00;;;;;14.97;72.40;101812.91;6333745;22;46079;-73
2023/01/05 10:07:49;;;;;;;;;0.00;0.00;;;;;15.00;72.32;101817.97;6332948;22;45460;-75
2023/01/05 10:10:37;;;;;;;;;0.50;0.00;;;;;15.00;72.39;101823.25;6333825;22;45855;-74
2023/01/05 10:13:05;;;;;;;;;0.00;0.00;;;;;15.01;72.41;101814.34;6335396;22;45641;-74
2023/01/05 10:15:50;;;;;;;;;0.00;0.00;;;;;14.99;72.26;101830.31;6334633;22;46712;-73
2023/01/05 10:18:23;;;;;;;;;0.50;0.25;;;;;14.97;72.76;101820.81;6334184;22;45597;-74
2023/01/05 10:21:00;;;;;;;;;0.75;0.00;;;;;15.00;72.40;101826.75;6334406;22;45723;-72
2023/01/05 10:23:40;;;;;;;;;1.00;1.00;;;;;15.01;73.07;101836.31;6334258;22;46707;-73
2023/01/05 10:26:25;;;;;;;;;0.00;0.00;;;;;15.00;72.58;101832.03;6307041;22;46950;-75
2023/01/05 10:29:00;;;;;;;;;0.25;0.00;;;;;14.97;72.69;101821.66;6334857;22;45581;-74
2023/01/05 10:31:44;;;;;;;;;0.00;0.00;;;;;14.95;73.41;101826.19;6335468;22;45764;-74
2023/01/05 10:34:20;;;;;;;;;0.00;0.00;;;;;14.92;73.53;101821.13;6335143;22;45534;-74
2023/01/05 10:36:53;;;;;;;;;0.00;0.00;;;;;14.86;73.67;101811.00;6306585;22;47510;-74
2023/01/05 10:39:36;;;;;;;;;0.00;0.00;;;;;14.83;73.84;101819.16;6335153;22;45601;-73
2023/01/05 10:42:20;;;;;;;;;0.00;0.00;;;;;14.79;74.06;101820.28;6334358;22;45843;-75
2023/01/05 10:44:56;;;;;;;;;0.00;0.00;;;;;14.77;73.97;101824.00;6306090;22;48788;-74
2023/01/05 10:47:24;;;;;;;;;0.00;0.00;;;;;14.73;74.48;101814.63;6333435;22;46312;-75
2023/01/05 10:49:50;;;;;;;;;0.75;0.75;;;;;14.72;74.73;101818.19;6334213;22;45507;-74
2023/01/05 10:52:19;;;;;;;;;1.00;1.00;;;;;14.80;74.53;101810.59;6334291;22;45463;-75
2023/01/05 10:55:11;;;;;;;;;0.25;0.25;;;;;14.84;74.72;101806.81;6333900;22;46411;-74
2023/01/05 10:57:39;;;;;;;;;0.75;0.75;;;;;14.90;74.43;101807.19;6332811;22;46196;-76
2023/01/05 11:00:13;;;;;;;;;1.25;0.00;;;;;14.95;74.70;101805.06;6334128;22;45478;-73
2023/01/05 11:02:52;;;;;;;;;0.00;0.00;;;;;14.95;74.41;101785.78;6334323;22;45430;-76
2023/01/05 11:05:29;;;;;;;;;0.00;0.00;;;;;15.00;74.01;101795.06;6333936;22;47391;-75
2023/01/05 11:08:01;;;;;;;;;2.00;0.25;;;;;15.01;73.99;101787.97;6334082;22;45993;-76
2023/01/05 11:10:46;;;;;;;;;0.00;0.00;;;;;14.97;74.25;101783.88;6334066;22;45797;-75
2023/01/05 11:16:34;;;;;;;;;0.00;0.00;;;;;14.97;74.40;101768.88;6334529;22;45446;-75
2023/01/05 11:19:13;;;;;;;;;0.00;0.00;;;;;15.03;74.21;101779.00;6333571;22;47085;-73
2023/01/05 11:21:43;;;;;;;;;0.00;0.00;;;;;14.97;74.08;101763.59;6333986;22;45682;-72
2023/01/05 11:24:23;;;;;;;;;1.50;0.00;;;;;15.05;74.02;101763.91;6306245;22;45822;-75
2023/01/05 11:26:54;;;;;;;;;0.00;0.00;;;;;15.07;74.18;101763.78;6334505;22;46475;-74
2023/01/05 11:32:46;;;;;;;;;0.00;0.00;;;;;15.16;73.55;101765.78;6334304;22;45609;-72
2023/01/05 11:35:30;;;;;;;;;0.00;0.00;;;;;15.18;73.18;101755.09;6334049;22;45677;-76
2023/01/05 11:37:56;;;;;;;;;0.00;0.00;;;;;15.21;73.43;101754.88;6333659;22;47168;-73
2023/01/05 11:40:27;;;;;;;;;0.00;0.00;;;;;15.25;73.36;101765.13;6334602;22;45801;-75
2023/01/05 11:42:53;;;;;;;;;1.00;0.00;;;;;15.32;73.36;101768.16;6334646;22;45628;-71
2023/01/05 11:48:50;;;;;;;;;0.00;0.00;;;;;15.37;72.87;101758.94;6327916;22;46043;-70
2023/01/05 11:51:34;;;;;;;;;0.00;0.00;;;;;15.40;72.93;101749.94;6334566;22;45872;-75
2023/01/05 11:53:59;;;;;;;;;0.50;0.00;;;;;15.44;72.69;101748.75;6334605;22;45615;-74
2023/01/05 11:56:25;;;;;;;;;0.25;0.25;;;;;15.44;72.83;101756.69;6334773;22;45701;-74
2023/01/05 11:58:59;;;;;;;;;0.50;0.50;;;;;15.51;72.63;101755.28;6333577;22;46380;-75
2023/01/05 12:01:30;;;;;;;;;1.25;1.25;;;;;15.55;72.85;101755.97;6333633;22;46115;-74
2023/01/05 12:04:03;;;;;;;;;0.75;0.75;;;;;15.56;72.64;101753.19;6334658;22;45692;-75
2023/01/05 12:06:48;;;;;;;;;0.00;0.00;;;;;15.58;72.48;101745.16;6334855;22;45514;-72
2023/01/05 12:09:39;;;;;;;;;0.00;0.00;;;;;15.61;72.04;101743.13;6334574;22;45596;-74
2023/01/05 12:12:23;;;;;;;;;0.00;0.00;;;;;15.62;72.34;101734.25;6334716;22;46528;-73
2023/01/05 12:15:27;;;;;;;;;0.00;0.00;;;;;15.63;71.99;101735.09;6334589;22;45532;-75
2023/01/05 12:18:20;;;;;;;;;0.00;0.00;;;;;15.60;71.90;101732.69;6206927;22;45549;-74
2023/01/05 12:21:24;;;;;;;;;0.75;0.75;;;;;15.63;71.53;101724.50;6207918;22;45579;-73
2023/01/05 12:24:12;;;;;;;;;0.00;0.00;;;;;15.60;71.79;101722.94;6161951;22;46241;-76
2023/01/05 12:26:45;;;;;;;;;0.00;0.00;;;;;15.64;71.63;101734.13;6206963;22;45687;-75
2023/01/05 12:32:41;;;;;;;;;0.00;0.00;;;;;15.65;71.74;101730.53;6207242;22;45555;-72
2023/01/05 12:35:44;;;;;;;;;0.25;0.25;;;;;15.64;71.56;101728.84;6207003;22;45783;-72
2023/01/05 12:38:41;;;;;;;;;1.00;1.00;;;;;15.58;71.57;101722.22;6206382;22;45732;-73
2023/01/05 12:41:32;;;;;;;;;0.00;0.00;;;;;15.56;71.44;101739.13;6206768;22;45493;-73
2023/01/05 12:50:47;;;;;;;;;0.00;0.00;;;;;15.46;71.66;101712.53;6205998;22;46615;-71
2023/01/05 12:53:46;;;;;;;;;0.00;0.00;;;;;15.51;71.40;101718.31;6211985;22;45838;-72
2023/01/05 12:56:37;;;;;;;;;0.00;0.00;;;;;15.46;70.85;101709.88;6237054;22;45586;-76
2023/01/05 13:05:55;;;;;;;;;0.00;0.00;;;;;15.43;70.67;101712.75;6237958;22;45683;-73
2023/01/05 13:08:27;;;;;;;;;0.00;0.00;;;;;15.42;70.72;101704.00;6237423;22;46634;-72
2023/01/05 13:11:17;;;;;;;;;0.00;0.00;;;;;15.47;70.89;101693.09;6238076;22;45867;-71
2023/01/05 13:14:04;;;;;;;;;0.00;0.00;;;;;15.52;70.82;101699.75;6237168;22;45805;-71
2023/01/05 13:16:37;;;;;;;;;0.00;0.00;;;;;15.54;70.55;101681.16;6237987;22;45696;-72
2023/01/05 13:19:33;;;;;;;;;0.00;0.00;;;;;15.55;70.51;101685.44;6238228;22;46673;-71
2023/01/05 13:22:03;;;;;;;;;0.00;0.00;;;;;15.55;70.50;101682.00;6237227;22;46682;-72